American Glory — WDA8860 — position and weather

sailwx.info

Track history (hours):
 
Tides and Currents Weather Stations Pressure Air Temp Water Temp Dewpoint Dewpoint Depression Visibility Wind Speed Wind Dir Waves Ship Positions

American Glory

Owner: AMERICAN CRUISE LINES INC, DELMAR, DE. More information available from US FCC via Universal Licensing System and Coast Guard Vessel Documentation Center.

Last reported at 2015-Nov-02 11:32 UTC. Time now 2016-Feb-08 21:23 UTC.
Position N 34°29' W 076°42'.
Warning: this ship's position is months out of date.

Length 54 m; draft 2.1 m.

Type: Passenger vessel. MMSI: 366858820.

Date/timePositionNaut miles runAvg speedWind from/ knotsBaromVisibWave heightAir tempDewpointWater temp
2015-Nov-02 11:32N 34°29' W 076°42'18 8.9
2015-Nov-02 09:28N 34°30' W 076°20'259 8.6
2015-Nov-01 03:29N 38°40' W 074°53'9 9.4
2015-Nov-01 02:33N 38°48' W 074°49'59 9.7
2015-Oct-31 20:29N 39°38' W 074°08'9 9.9
2015-Oct-31 19:33N 39°46' W 074°03'46 9.1
2015-Oct-31 14:33N 40°32' W 074°01'9 8.7
2015-Oct-31 13:33N 40°41' W 074°03'5 4.4
2015-Oct-31 12:31N 40°45' W 074°01'0 0.0
2015-Oct-31 11:31N 40°45' W 074°01'0 0.0
2015-Oct-31 10:31N 40°45' W 074°01'0 0.0
2015-Oct-31 09:31N 40°45' W 074°01'0 0.0
2015-Oct-31 08:31N 40°45' W 074°01'0 0.0
2015-Oct-31 07:31N 40°45' W 074°01'0 0.0
2015-Oct-31 06:31N 40°45' W 074°01'0 0.0
2015-Oct-31 05:31N 40°45' W 074°01'0 0.0
2015-Oct-31 04:28N 40°45' W 074°01'0 0.0
2015-Oct-31 03:31N 40°45' W 074°01'0 0.0
2015-Oct-31 02:31N 40°45' W 074°01'0 0.0
2015-Oct-31 01:31N 40°45' W 074°01'0 0.0
2015-Oct-31 00:31N 40°45' W 074°01'0 0.0
2015-Oct-30 23:31N 40°45' W 074°01'5 5.1
2015-Oct-30 22:33N 40°49' W 073°58'7 1.0
2015-Oct-30 15:04N 40°56' W 073°54'0 0.0
2015-Oct-30 14:31N 40°56' W 073°54'0 0.0
2015-Oct-30 12:28N 40°56' W 073°54'0 0.0
2015-Oct-30 08:16N 40°56' W 073°54'0 0.0
2015-Oct-30 07:16N 40°56' W 073°54'0 0.0
2015-Oct-30 02:13N 40°56' W 073°54'0 0.0
2015-Oct-30 01:28N 40°56' W 073°54'0 0.0
2015-Oct-30 00:19N 40°56' W 073°54'  
2015-Oct-25 23:33N 40°54' W 073°56'9 9.3
2015-Oct-25 22:34N 40°45' W 074°01'1 0.5
2015-Oct-25 21:31N 40°45' W 074°01'0 0.0
2015-Oct-25 20:31N 40°45' W 074°01'0 0.0
2015-Oct-25 19:31N 40°45' W 074°01'0 0.0
2015-Oct-25 18:31N 40°45' W 074°01'0 0.0
2015-Oct-25 17:31N 40°45' W 074°01'0 0.0
2015-Oct-25 16:31N 40°45' W 074°01'0 0.0
2015-Oct-25 15:31N 40°45' W 074°01'0 0.0
2015-Oct-25 14:31N 40°45' W 074°01'0 0.0
2015-Oct-25 13:31N 40°45' W 074°01'0 0.0
2015-Oct-25 12:31N 40°45' W 074°01'0 0.0
2015-Oct-25 11:31N 40°45' W 074°01'0 0.0
2015-Oct-25 10:31N 40°45' W 074°01'0 0.0
2015-Oct-25 09:31N 40°45' W 074°01'0 0.0
2015-Oct-25 08:31N 40°45' W 074°01'0 0.0
2015-Oct-25 07:31N 40°45' W 074°01'0 0.0
2015-Oct-25 06:31N 40°45' W 074°01'0 0.0
2015-Oct-25 05:31N 40°45' W 074°01'0 0.0
2015-Oct-25 04:31N 40°45' W 074°01'0 0.0
2015-Oct-25 03:31N 40°45' W 074°01'0 0.0
2015-Oct-25 02:31N 40°45' W 074°01'0 0.0
2015-Oct-25 01:31N 40°45' W 074°01'0 0.0
2015-Oct-25 00:31N 40°45' W 074°01'0 0.0
2015-Oct-24 23:31N 40°45' W 074°01'0 0.0
2015-Oct-24 22:31N 40°45' W 074°01'0 0.0
2015-Oct-24 21:31N 40°45' W 074°01'0 0.0
2015-Oct-24 20:31N 40°45' W 074°01'0 0.0
2015-Oct-24 19:31N 40°45' W 074°01'0 0.0
2015-Oct-24 18:31N 40°45' W 074°01'0 0.0
2015-Oct-24 17:31N 40°45' W 074°01'0 0.0
2015-Oct-24 16:28N 40°45' W 074°01'0 0.0
2015-Oct-24 15:31N 40°45' W 074°01'0 0.0
2015-Oct-24 14:31N 40°45' W 074°01'0 0.0
2015-Oct-24 13:31N 40°45' W 074°01'0 0.0
2015-Oct-24 12:31N 40°45' W 074°01'0 0.0
2015-Oct-24 11:31N 40°45' W 074°01'0 0.0
2015-Oct-24 10:31N 40°45' W 074°01'0 0.0
2015-Oct-24 09:31N 40°45' W 074°01'0 0.0
2015-Oct-24 08:31N 40°45' W 074°01'0 0.0
2015-Oct-24 07:31N 40°45' W 074°01'0 0.0
2015-Oct-24 06:31N 40°45' W 074°01'0 0.0
2015-Oct-24 05:31N 40°45' W 074°01'0 0.0
2015-Oct-24 04:28N 40°45' W 074°01'0 0.0
2015-Oct-24 03:31N 40°45' W 074°01'0 0.0
2015-Oct-24 02:31N 40°45' W 074°01'4 3.7
2015-Oct-24 01:33N 40°48' W 073°59'  
Track history (hours):
 
Tides and Currents Weather Stations Pressure Air Temp Water Temp Dewpoint Dewpoint Depression Visibility Wind Speed Wind Dir Waves Ship Positions

American Glory

Owner: AMERICAN CRUISE LINES INC, DELMAR, DE. More information available from US FCC via Universal Licensing System and Coast Guard Vessel Documentation Center.

Last reported at 2015-Nov-02 11:32 UTC. Time now 2016-Feb-08 21:23 UTC.
Position N 34°29' W 076°42'.
Warning: this ship's position is months out of date.

Length 54 m; draft 2.1 m.

Type: Passenger vessel. MMSI: 366858820.

Date/timePositionNaut miles runAvg speedWind from/ knotsBaromVisibWave heightAir tempDewpointWater temp
2015-Nov-02 11:32N 34°29' W 076°42'18 8.9
2015-Nov-02 09:28N 34°30' W 076°20'259 8.6
2015-Nov-01 03:29N 38°40' W 074°53'9 9.4
2015-Nov-01 02:33N 38°48' W 074°49'59 9.7
2015-Oct-31 20:29N 39°38' W 074°08'9 9.9
2015-Oct-31 19:33N 39°46' W 074°03'46 9.1
2015-Oct-31 14:33N 40°32' W 074°01'9 8.7
2015-Oct-31 13:33N 40°41' W 074°03'5 4.4
2015-Oct-31 12:31N 40°45' W 074°01'0 0.0
2015-Oct-31 11:31N 40°45' W 074°01'0 0.0
2015-Oct-31 10:31N 40°45' W 074°01'0 0.0
2015-Oct-31 09:31N 40°45' W 074°01'0 0.0
2015-Oct-31 08:31N 40°45' W 074°01'0 0.0
2015-Oct-31 07:31N 40°45' W 074°01'0 0.0
2015-Oct-31 06:31N 40°45' W 074°01'0 0.0
2015-Oct-31 05:31N 40°45' W 074°01'0 0.0
2015-Oct-31 04:28N 40°45' W 074°01'0 0.0
2015-Oct-31 03:31N 40°45' W 074°01'0 0.0
2015-Oct-31 02:31N 40°45' W 074°01'0 0.0
2015-Oct-31 01:31N 40°45' W 074°01'0 0.0
2015-Oct-31 00:31N 40°45' W 074°01'0 0.0
2015-Oct-30 23:31N 40°45' W 074°01'5 5.1
2015-Oct-30 22:33N 40°49' W 073°58'7 1.0
2015-Oct-30 15:04N 40°56' W 073°54'0 0.0
2015-Oct-30 14:31N 40°56' W 073°54'0 0.0
2015-Oct-30 12:28N 40°56' W 073°54'0 0.0
2015-Oct-30 08:16N 40°56' W 073°54'0 0.0
2015-Oct-30 07:16N 40°56' W 073°54'0 0.0
2015-Oct-30 02:13N 40°56' W 073°54'0 0.0
2015-Oct-30 01:28N 40°56' W 073°54'0 0.0
2015-Oct-30 00:19N 40°56' W 073°54'  
2015-Oct-25 23:33N 40°54' W 073°56'9 9.3
2015-Oct-25 22:34N 40°45' W 074°01'1 0.5
2015-Oct-25 21:31N 40°45' W 074°01'0 0.0
2015-Oct-25 20:31N 40°45' W 074°01'0 0.0
2015-Oct-25 19:31N 40°45' W 074°01'0 0.0
2015-Oct-25 18:31N 40°45' W 074°01'0 0.0
2015-Oct-25 17:31N 40°45' W 074°01'0 0.0
2015-Oct-25 16:31N 40°45' W 074°01'0 0.0
2015-Oct-25 15:31N 40°45' W 074°01'0 0.0
2015-Oct-25 14:31N 40°45' W 074°01'0 0.0
2015-Oct-25 13:31N 40°45' W 074°01'0 0.0
2015-Oct-25 12:31N 40°45' W 074°01'0 0.0
2015-Oct-25 11:31N 40°45' W 074°01'0 0.0
2015-Oct-25 10:31N 40°45' W 074°01'0 0.0
2015-Oct-25 09:31N 40°45' W 074°01'0 0.0
2015-Oct-25 08:31N 40°45' W 074°01'0 0.0
2015-Oct-25 07:31N 40°45' W 074°01'0 0.0
2015-Oct-25 06:31N 40°45' W 074°01'0 0.0
2015-Oct-25 05:31N 40°45' W 074°01'0 0.0
2015-Oct-25 04:31N 40°45' W 074°01'0 0.0
2015-Oct-25 03:31N 40°45' W 074°01'0 0.0
2015-Oct-25 02:31N 40°45' W 074°01'0 0.0
2015-Oct-25 01:31N 40°45' W 074°01'0 0.0
2015-Oct-25 00:31N 40°45' W 074°01'0 0.0
2015-Oct-24 23:31N 40°45' W 074°01'0 0.0
2015-Oct-24 22:31N 40°45' W 074°01'0 0.0
2015-Oct-24 21:31N 40°45' W 074°01'0 0.0
2015-Oct-24 20:31N 40°45' W 074°01'0 0.0
2015-Oct-24 19:31N 40°45' W 074°01'0 0.0
2015-Oct-24 18:31N 40°45' W 074°01'0 0.0
2015-Oct-24 17:31N 40°45' W 074°01'0 0.0
2015-Oct-24 16:28N 40°45' W 074°01'0 0.0
2015-Oct-24 15:31N 40°45' W 074°01'0 0.0
2015-Oct-24 14:31N 40°45' W 074°01'0 0.0
2015-Oct-24 13:31N 40°45' W 074°01'0 0.0
2015-Oct-24 12:31N 40°45' W 074°01'0 0.0
2015-Oct-24 11:31N 40°45' W 074°01'0 0.0
2015-Oct-24 10:31N 40°45' W 074°01'0 0.0
2015-Oct-24 09:31N 40°45' W 074°01'0 0.0
2015-Oct-24 08:31N 40°45' W 074°01'0 0.0
2015-Oct-24 07:31N 40°45' W 074°01'0 0.0
2015-Oct-24 06:31N 40°45' W 074°01'0 0.0
2015-Oct-24 05:31N 40°45' W 074°01'0 0.0
2015-Oct-24 04:28N 40°45' W 074°01'0 0.0
2015-Oct-24 03:31N 40°45' W 074°01'0 0.0
2015-Oct-24 02:31N 40°45' W 074°01'4 3.7
2015-Oct-24 01:33N 40°48' W 073°59'  

Dump ship's entire track history